Time;durP1;ratioP1;P1;durP2;ratioP2;P2;SDS_P1;SDS_P2;PMS_P1;PMS_P2;Temp;Humidity;BMP_temperature;BMP_pressure;BME280_temperature;BME280_humidity;BME280_pressure;Samples;Min_cycle;Max_cycle;Signal;HPM_P1;HPM_P2
2020/12/15 00:02:18;;;;;;;24.93;15.87;;;3.30;99.90;;;;;;6205600;28;20510;-61
2020/12/15 00:05:20;;;;;;;21.63;13.83;;;3.30;99.90;;;;;;6205738;28;20469;-61
2020/12/15 00:08:23;;;;;;;22.73;14.40;;;3.30;99.90;;;;;;6205651;28;20473;-62
2020/12/15 00:11:25;;;;;;;20.20;13.80;;;3.40;99.90;;;;;;6205608;28;20476;-63
2020/12/15 00:14:29;;;;;;;20.40;13.70;;;3.40;99.90;;;;;;6205198;28;20489;-62
2020/12/15 00:17:31;;;;;;;19.20;14.07;;;3.40;99.90;;;;;;6205067;28;20796;-64
2020/12/15 00:20:36;;;;;;;20.27;13.67;;;3.30;99.90;;;;;;6205260;28;20488;-61
2020/12/15 00:23:39;;;;;;;21.90;14.77;;;3.30;99.90;;;;;;6205217;28;20469;-62
2020/12/15 00:26:42;;;;;;;21.10;15.57;;;3.30;99.90;;;;;;6205216;28;20483;-63
2020/12/15 00:29:47;;;;;;;17.53;12.70;;;3.20;99.90;;;;;;6205270;28;20476;-63
2020/12/15 00:32:49;;;;;;;21.27;15.23;;;3.30;99.90;;;;;;6204917;28;20487;-61
2020/12/15 00:35:51;;;;;;;23.43;13.77;;;3.30;99.90;;;;;;6204991;28;21000;-62
2020/12/15 00:38:54;;;;;;;21.60;14.77;;;3.30;99.90;;;;;;6205028;28;20483;-62
2020/12/15 00:41:56;;;;;;;17.93;14.07;;;3.40;99.90;;;;;;6204574;28;20965;-62
2020/12/15 00:44:59;;;;;;;20.40;15.17;;;3.40;99.90;;;;;;6205063;28;20477;-61
2020/12/15 00:48:01;;;;;;;24.63;14.47;;;3.40;99.90;;;;;;6204309;28;20483;-61
2020/12/15 00:51:03;;;;;;;18.27;12.83;;;3.40;99.90;;;;;;6204466;28;20496;-61
2020/12/15 00:54:06;;;;;;;20.23;14.50;;;3.40;99.90;;;;;;6199971;28;20491;-59
2020/12/15 00:57:09;;;;;;;20.77;14.27;;;3.40;99.90;;;;;;6204283;28;20480;-61
2020/12/15 01:00:13;;;;;;;23.50;15.37;;;3.40;99.90;;;;;;6223609;28;20490;-62
2020/12/15 01:03:15;;;;;;;22.03;16.47;;;3.30;99.90;;;;;;6226293;28;20594;-62
2020/12/15 01:06:18;;;;;;;18.83;14.40;;;3.30;99.90;;;;;;6220307;28;20483;-62
2020/12/15 01:09:21;;;;;;;24.37;17.00;;;3.20;99.90;;;;;;6211719;28;20472;-62
2020/12/15 01:12:23;;;;;;;21.10;15.00;;;3.10;99.90;;;;;;6206493;28;20476;-61
2020/12/15 01:15:25;;;;;;;23.40;15.27;;;3.20;99.90;;;;;;6216037;28;20481;-62
2020/12/15 01:18:28;;;;;;;24.47;17.10;;;3.30;99.90;;;;;;6215844;28;20483;-61
2020/12/15 01:21:30;;;;;;;23.77;15.93;;;3.30;99.90;;;;;;6211570;28;20492;-62
2020/12/15 01:24:34;;;;;;;24.50;15.77;;;3.30;99.90;;;;;;6218040;28;20465;-62
2020/12/15 01:27:36;;;;;;;26.90;15.67;;;3.30;99.90;;;;;;6213054;28;20926;-61
2020/12/15 01:30:39;;;;;;;20.77;15.60;;;3.30;99.90;;;;;;6225704;28;20464;-60
2020/12/15 01:33:41;;;;;;;25.90;16.77;;;3.20;99.90;;;;;;6225617;28;20562;-60
2020/12/15 01:36:44;;;;;;;30.50;15.67;;;3.30;99.90;;;;;;6213654;28;20786;-60
2020/12/15 01:39:48;;;;;;;24.60;14.80;;;3.40;99.90;;;;;;6212332;28;20528;-60
2020/12/15 01:42:50;;;;;;;23.50;15.53;;;3.40;99.90;;;;;;6211731;28;20443;-60
2020/12/15 01:45:52;;;;;;;20.93;15.73;;;3.40;99.90;;;;;;6214140;28;20445;-60
2020/12/15 01:48:55;;;;;;;20.20;14.23;;;3.30;99.90;;;;;;6214032;28;23420;-60
2020/12/15 01:51:58;;;;;;;21.20;14.90;;;3.30;99.90;;;;;;6213206;28;20472;-60
2020/12/15 01:55:02;;;;;;;24.67;15.00;;;3.40;99.90;;;;;;6220374;28;20970;-61
2020/12/15 01:58:05;;;;;;;22.77;14.87;;;3.40;99.90;;;;;;6210110;28;20985;-60
2020/12/15 02:01:07;;;;;;;24.33;15.10;;;3.30;99.90;;;;;;6208663;28;20472;-61
2020/12/15 02:04:10;;;;;;;20.87;14.63;;;3.20;99.90;;;;;;6214859;28;20472;-60
2020/12/15 02:07:13;;;;;;;22.97;15.70;;;3.20;99.90;;;;;;6208673;28;20465;-61
2020/12/15 02:10:16;;;;;;;20.53;14.80;;;3.30;99.90;;;;;;6219854;28;20487;-61
2020/12/15 02:13:22;;;;;;;22.10;14.40;;;3.30;99.90;;;;;;6217382;28;20976;-61
2020/12/15 02:16:24;;;;;;;24.20;13.60;;;3.30;99.90;;;;;;6209882;28;20813;-61
2020/12/15 02:19:26;;;;;;;23.50;16.10;;;3.30;99.90;;;;;;6201919;28;20469;-60
2020/12/15 02:22:29;;;;;;;24.97;15.57;;;3.30;99.90;;;;;;6207706;28;20535;-60
2020/12/15 02:25:31;;;;;;;18.90;13.70;;;3.30;99.90;;;;;;6210526;28;20467;-60
2020/12/15 02:28:33;;;;;;;25.43;15.00;;;3.30;99.90;;;;;;6226933;28;20480;-61
2020/12/15 02:31:36;;;;;;;22.23;15.20;;;3.20;99.90;;;;;;6223765;28;20476;-60
2020/12/15 02:34:39;;;;;;;20.83;15.20;;;3.30;99.90;;;;;;6226539;28;20488;-61
2020/12/15 02:37:42;;;;;;;22.80;16.77;;;3.20;99.90;;;;;;6226734;28;20558;-61
2020/12/15 02:40:45;;;;;;;17.30;13.10;;;3.30;99.90;;;;;;6226693;28;20480;-61
2020/12/15 02:43:47;;;;;;;21.70;13.97;;;3.20;99.90;;;;;;6227013;28;20478;-61
2020/12/15 02:46:49;;;;;;;23.37;15.20;;;3.20;99.90;;;;;;6226389;28;20480;-61
2020/12/15 02:49:52;;;;;;;25.73;16.77;;;3.20;99.90;;;;;;6226264;28;20476;-60
2020/12/15 02:52:55;;;;;;;25.00;17.00;;;3.20;99.90;;;;;;6226195;28;20491;-60
2020/12/15 02:55:58;;;;;;;22.87;14.17;;;3.10;99.90;;;;;;6226994;28;20487;-60
2020/12/15 02:59:00;;;;;;;26.70;15.00;;;3.10;99.90;;;;;;6226355;28;20471;-60
2020/12/15 03:02:02;;;;;;;23.83;15.20;;;3.00;99.90;;;;;;6218140;28;20476;-61
2020/12/15 03:05:05;;;;;;;25.20;15.03;;;3.00;99.90;;;;;;6225999;28;20475;-61
2020/12/15 03:08:08;;;;;;;25.93;15.33;;;3.00;99.90;;;;;;6226121;28;20475;-62
2020/12/15 03:11:10;;;;;;;20.47;13.10;;;3.00;99.90;;;;;;6209185;28;20473;-63
2020/12/15 03:14:13;;;;;;;23.30;14.97;;;3.00;99.90;;;;;;6206537;28;20785;-60
2020/12/15 03:17:15;;;;;;;22.93;15.00;;;3.00;99.90;;;;;;6212405;28;20486;-62
2020/12/15 03:20:17;;;;;;;24.80;14.80;;;3.00;99.90;;;;;;6201509;28;20488;-62
2020/12/15 03:23:21;;;;;;;27.57;15.80;;;3.10;99.90;;;;;;6201706;28;20462;-63
2020/12/15 03:26:23;;;;;;;29.83;15.57;;;3.00;99.90;;;;;;6206690;28;20469;-62
2020/12/15 03:29:26;;;;;;;28.60;15.23;;;3.00;99.90;;;;;;6204433;28;20485;-62
2020/12/15 03:32:28;;;;;;;24.07;15.10;;;3.00;99.90;;;;;;6204887;28;20472;-62
2020/12/15 03:35:32;;;;;;;25.80;15.47;;;3.10;99.90;;;;;;6220622;28;20558;-62
2020/12/15 03:38:35;;;;;;;20.43;13.13;;;3.10;99.90;;;;;;6210000;28;20469;-61
2020/12/15 03:41:38;;;;;;;23.33;13.70;;;3.00;99.90;;;;;;6208295;28;20468;-62
2020/12/15 03:44:41;;;;;;;24.50;14.43;;;3.00;99.90;;;;;;6211381;28;20959;-63
2020/12/15 03:47:43;;;;;;;21.90;13.80;;;3.00;99.90;;;;;;6209883;28;20464;-62
2020/12/15 03:50:46;;;;;;;20.60;14.17;;;2.90;99.90;;;;;;6210176;28;20480;-62
2020/12/15 03:53:49;;;;;;;25.33;14.00;;;3.00;99.90;;;;;;6225548;28;20490;-62
2020/12/15 03:56:51;;;;;;;21.87;13.73;;;3.00;99.90;;;;;;6216634;28;20481;-62
2020/12/15 03:59:53;;;;;;;21.43;14.20;;;3.10;99.90;;;;;;6203212;28;20490;-62
2020/12/15 04:02:55;;;;;;;26.00;17.07;;;3.10;99.90;;;;;;6214030;28;20468;-62
2020/12/15 04:05:57;;;;;;;24.70;16.47;;;3.20;99.90;;;;;;6199305;28;20481;-63
2020/12/15 04:09:00;;;;;;;25.40;15.60;;;3.20;99.90;;;;;;6202412;28;20523;-62
2020/12/15 04:12:02;;;;;;;24.23;14.87;;;3.20;99.90;;;;;;6211064;28;20472;-62
2020/12/15 04:15:05;;;;;;;23.80;14.27;;;3.20;99.90;;;;;;6209204;28;20483;-62
2020/12/15 04:18:07;;;;;;;22.97;15.30;;;3.20;99.90;;;;;;6210456;28;20807;-62
2020/12/15 04:21:10;;;;;;;23.27;14.43;;;3.30;99.90;;;;;;6212504;28;20482;-62
2020/12/15 04:24:15;;;;;;;27.67;16.10;;;3.30;99.90;;;;;;6212829;28;20468;-62
2020/12/15 04:27:17;;;;;;;25.23;14.77;;;3.20;99.90;;;;;;6211364;28;20480;-61
2020/12/15 04:30:19;;;;;;;25.50;14.30;;;3.20;99.90;;;;;;6210347;28;20475;-63
2020/12/15 04:33:22;;;;;;;24.83;15.33;;;3.10;99.90;;;;;;6211660;28;20917;-61
2020/12/15 04:36:24;;;;;;;18.77;13.33;;;3.10;99.90;;;;;;6209796;28;20484;-62
2020/12/15 04:39:27;;;;;;;21.67;13.83;;;3.10;99.90;;;;;;6207153;28;20480;-62
2020/12/15 04:42:30;;;;;;;23.47;13.00;;;3.10;99.90;;;;;;6212690;28;20460;-62
2020/12/15 04:45:35;;;;;;;22.23;14.77;;;3.20;99.90;;;;;;6214931;28;20465;-62
2020/12/15 04:48:48;;;;;;;19.00;13.33;;;3.20;99.90;;;;;;6214934;28;20440;-62
2020/12/15 04:51:58;;;;;;;21.17;13.47;;;3.20;99.90;;;;;;6212574;28;20465;-62
2020/12/15 04:55:01;;;;;;;19.33;13.80;;;3.20;99.90;;;;;;6215819;28;20460;-61
2020/12/15 04:58:05;;;;;;;20.37;12.63;;;3.20;99.90;;;;;;6213814;28;20815;-62
2020/12/15 05:01:08;;;;;;;20.93;13.80;;;3.30;99.90;;;;;;6215684;28;20476;-62
2020/12/15 05:04:13;;;;;;;20.33;14.30;;;3.30;99.90;;;;;;6217339;28;20598;-62
2020/12/15 05:07:15;;;;;;;20.00;14.30;;;3.20;99.90;;;;;;6213097;28;20477;-62
2020/12/15 05:10:19;;;;;;;20.40;12.50;;;3.20;99.90;;;;;;6209922;28;20469;-62
2020/12/15 05:13:21;;;;;;;22.20;13.37;;;3.20;99.90;;;;;;6204399;28;20524;-62
2020/12/15 05:16:24;;;;;;;23.10;14.70;;;3.20;99.90;;;;;;6204498;28;20468;-61
2020/12/15 05:19:26;;;;;;;22.33;15.00;;;3.30;99.90;;;;;;6204068;28;20472;-61
2020/12/15 05:22:41;;;;;;;19.87;14.70;;;3.30;99.90;;;;;;6204002;28;20817;-62
2020/12/15 05:25:44;;;;;;;19.67;14.20;;;3.40;99.90;;;;;;6203957;28;20466;-61
2020/12/15 05:28:46;;;;;;;16.87;13.17;;;3.30;99.90;;;;;;6204560;28;20477;-62
2020/12/15 05:31:51;;;;;;;21.20;14.73;;;3.30;99.90;;;;;;6204210;28;20503;-61
2020/12/15 05:34:54;;;;;;;22.70;14.00;;;3.30;99.90;;;;;;6203898;28;21021;-63
2020/12/15 05:37:56;;;;;;;15.93;12.30;;;3.30;99.90;;;;;;6203731;28;20477;-62
2020/12/15 05:40:59;;;;;;;17.87;12.73;;;3.30;99.90;;;;;;6204214;28;20481;-61
2020/12/15 05:44:13;;;;;;;19.93;14.27;;;3.20;99.90;;;;;;6204003;28;20469;-61
2020/12/15 05:47:21;;;;;;;17.90;12.20;;;3.10;99.90;;;;;;6204032;28;20811;-61
2020/12/15 05:50:25;;;;;;;19.67;12.60;;;3.20;99.90;;;;;;6205698;28;20477;-61
2020/12/15 05:53:29;;;;;;;21.73;13.00;;;3.00;99.90;;;;;;6203390;28;20516;-61
2020/12/15 05:56:34;;;;;;;20.20;13.30;;;3.00;99.90;;;;;;6202992;28;20469;-62
2020/12/15 05:59:36;;;;;;;20.73;13.00;;;3.00;99.90;;;;;;6203561;28;20483;-62
2020/12/15 06:02:40;;;;;;;22.00;14.50;;;3.00;99.90;;;;;;6203277;28;20567;-62
2020/12/15 06:05:43;;;;;;;19.03;12.57;;;3.00;99.90;;;;;;6204029;28;20472;-61
2020/12/15 06:08:49;;;;;;;25.97;15.40;;;3.00;99.90;;;;;;6206356;28;20477;-62
2020/12/15 06:11:52;;;;;;;18.50;13.50;;;3.00;99.90;;;;;;6204776;28;20985;-62
2020/12/15 06:14:54;;;;;;;24.40;14.60;;;3.00;99.90;;;;;;6193912;28;20488;-62
2020/12/15 06:17:59;;;;;;;19.27;13.40;;;3.00;99.90;;;;;;6202608;28;20511;-61
2020/12/15 06:21:09;;;;;;;17.87;12.20;;;2.90;99.90;;;;;;6202666;28;20481;-62
2020/12/15 06:24:11;;;;;;;20.30;12.17;;;2.90;99.90;;;;;;6202686;28;20515;-60
2020/12/15 06:27:16;;;;;;;19.50;13.17;;;2.90;99.90;;;;;;6202462;28;20820;-62
2020/12/15 06:30:28;;;;;;;22.17;14.10;;;2.90;99.90;;;;;;6205657;28;20567;-61
2020/12/15 06:33:34;;;;;;;18.83;12.53;;;2.90;99.90;;;;;;6226531;28;20488;-62
2020/12/15 06:36:36;;;;;;;30.97;14.30;;;2.90;99.90;;;;;;6226265;28;20551;-62
2020/12/15 06:39:39;;;;;;;20.73;13.27;;;3.00;99.90;;;;;;6226531;28;20467;-62
2020/12/15 06:42:50;;;;;;;24.87;13.80;;;3.00;99.90;;;;;;6226352;28;20444;-62
2020/12/15 06:46:03;;;;;;;16.47;12.23;;;3.00;99.90;;;;;;6226322;28;20510;-62
2020/12/15 06:49:10;;;;;;;22.13;13.10;;;2.90;99.90;;;;;;6226766;28;20511;-60
2020/12/15 06:52:12;;;;;;;21.40;12.67;;;2.90;99.90;;;;;;6226173;28;20963;-61
2020/12/15 06:55:14;;;;;;;22.67;13.60;;;2.90;99.90;;;;;;6226231;28;20724;-61
2020/12/15 06:58:23;;;;;;;18.00;12.20;;;2.90;99.90;;;;;;6226286;28;20602;-61
2020/12/15 07:01:26;;;;;;;20.50;12.23;;;2.80;99.90;;;;;;6226331;28;20567;-61
2020/12/15 07:04:29;;;;;;;22.63;12.80;;;2.90;99.90;;;;;;6226321;28;20475;-62
2020/12/15 07:07:31;;;;;;;23.03;13.83;;;2.90;99.90;;;;;;6225629;28;20490;-62
2020/12/15 07:10:35;;;;;;;21.13;14.13;;;2.90;99.90;;;;;;6226335;28;20487;-62
2020/12/15 07:13:38;;;;;;;23.47;13.17;;;2.90;99.90;;;;;;6226228;28;20487;-62
2020/12/15 07:16:41;;;;;;;24.47;13.20;;;2.90;99.90;;;;;;6221289;28;20472;-62
2020/12/15 07:19:43;;;;;;;20.30;12.13;;;2.80;99.90;;;;;;6225899;28;20622;-62
2020/12/15 07:22:45;;;;;;;25.27;15.13;;;2.90;99.90;;;;;;6225824;28;20798;-62
2020/12/15 07:25:47;;;;;;;21.73;12.00;;;2.90;99.90;;;;;;6225919;28;20476;-62
2020/12/15 07:28:52;;;;;;;20.13;14.07;;;2.90;99.90;;;;;;6225524;28;20971;-60
2020/12/15 07:31:54;;;;;;;19.20;12.90;;;2.90;99.90;;;;;;6225726;28;20570;-61
2020/12/15 07:35:01;;;;;;;18.93;13.10;;;2.90;99.90;;;;;;6225194;28;20487;-61
2020/12/15 07:38:04;;;;;;;19.93;12.57;;;2.80;99.90;;;;;;6225643;28;20483;-62
2020/12/15 07:41:13;;;;;;;15.47;11.33;;;2.80;99.90;;;;;;6225924;28;20476;-62
2020/12/15 07:44:16;;;;;;;20.67;12.97;;;2.70;99.90;;;;;;6225243;28;20498;-62
2020/12/15 07:47:20;;;;;;;20.47;12.70;;;2.70;99.90;;;;;;6225136;28;20815;-62
2020/12/15 07:50:27;;;;;;;20.30;12.40;;;2.70;99.90;;;;;;6225443;28;20475;-62
2020/12/15 07:53:30;;;;;;;21.40;14.27;;;2.60;99.90;;;;;;6225199;28;21063;-61
2020/12/15 07:56:32;;;;;;;22.07;14.20;;;2.70;99.90;;;;;;6225481;28;20476;-61
2020/12/15 07:59:36;;;;;;;24.00;14.83;;;2.80;99.90;;;;;;6225607;28;21018;-61
2020/12/15 08:02:39;;;;;;;22.20;13.47;;;2.90;99.90;;;;;;6225020;28;20824;-61
2020/12/15 08:05:41;;;;;;;27.13;15.60;;;2.90;99.90;;;;;;6225203;28;20473;-61
2020/12/15 08:08:47;;;;;;;20.30;13.30;;;2.90;99.90;;;;;;6225465;28;20518;-61
2020/12/15 08:11:50;;;;;;;21.10;14.30;;;2.90;99.90;;;;;;6225001;28;20475;-61
2020/12/15 08:14:54;;;;;;;24.40;13.30;;;2.80;99.90;;;;;;6224967;28;20472;-61
2020/12/15 08:17:59;;;;;;;23.13;15.13;;;2.80;99.90;;;;;;6226413;28;20486;-61
2020/12/15 08:21:03;;;;;;;24.53;12.23;;;2.90;99.90;;;;;;6225362;28;20472;-61
2020/12/15 08:24:21;;;;;;;25.17;13.90;;;2.90;99.90;;;;;;6229769;28;20501;-61
2020/12/15 08:27:25;;;;;;;22.47;14.00;;;3.00;99.90;;;;;;6229637;28;20491;-61
2020/12/15 08:30:30;;;;;;;24.90;14.53;;;3.00;99.90;;;;;;6229480;28;20475;-61
2020/12/15 08:33:33;;;;;;;23.30;15.40;;;3.00;99.90;;;;;;6229386;28;20818;-62
2020/12/15 08:36:42;;;;;;;23.87;14.00;;;3.00;99.90;;;;;;6229397;28;20552;-62
2020/12/15 08:39:46;;;;;;;24.50;15.37;;;3.00;99.90;;;;;;6229659;28;20733;-62
2020/12/15 08:42:55;;;;;;;25.13;14.07;;;3.00;99.90;;;;;;6229249;28;20886;-62
2020/12/15 08:45:58;;;;;;;29.60;17.57;;;3.00;99.90;;;;;;6229675;28;20421;-61
2020/12/15 08:49:01;;;;;;;25.43;15.70;;;3.10;99.90;;;;;;6229420;28;20475;-61
2020/12/15 08:52:04;;;;;;;24.57;15.30;;;3.20;99.90;;;;;;6229383;28;20476;-60
2020/12/15 08:55:07;;;;;;;26.03;14.17;;;3.30;99.90;;;;;;6228897;28;20786;-60
2020/12/15 08:58:10;;;;;;;25.30;15.77;;;3.30;99.90;;;;;;6229390;28;20507;-60
2020/12/15 09:01:14;;;;;;;23.47;14.80;;;3.20;99.90;;;;;;6229215;28;20919;-61
2020/12/15 09:04:25;;;;;;;22.17;13.57;;;3.30;99.90;;;;;;6229029;28;20483;-61
2020/12/15 09:07:29;;;;;;;23.67;15.17;;;3.00;99.90;;;;;;6229091;28;20479;-62
2020/12/15 09:10:31;;;;;;;26.90;15.00;;;3.10;99.90;;;;;;6228895;28;20563;-60
2020/12/15 09:13:34;;;;;;;26.73;16.10;;;3.00;99.90;;;;;;6215911;28;20495;-59
2020/12/15 09:16:37;;;;;;;24.17;14.67;;;3.10;99.90;;;;;;6211486;28;20802;-61
2020/12/15 09:19:41;;;;;;;25.10;14.13;;;3.10;99.90;;;;;;6215128;28;20523;-59
2020/12/15 09:22:43;;;;;;;24.20;14.17;;;3.20;99.90;;;;;;6215586;28;20607;-60
2020/12/15 09:25:45;;;;;;;22.67;14.07;;;3.20;99.90;;;;;;6214544;28;20535;-61
2020/12/15 09:28:48;;;;;;;22.97;12.93;;;3.30;99.90;;;;;;6216762;28;20460;-61
2020/12/15 09:31:56;;;;;;;22.00;14.83;;;3.20;99.90;;;;;;6215744;28;21040;-62
2020/12/15 09:34:58;;;;;;;20.73;14.17;;;3.20;99.90;;;;;;6204709;28;20548;-62
2020/12/15 09:38:03;;;;;;;20.77;14.80;;;3.20;99.90;;;;;;6203287;28;20551;-61
2020/12/15 09:41:05;;;;;;;27.10;16.30;;;3.30;99.90;;;;;;6203685;28;20487;-62
2020/12/15 09:44:07;;;;;;;22.77;13.90;;;3.30;99.90;;;;;;6203397;28;20476;-63
2020/12/15 09:47:13;;;;;;;23.70;14.33;;;3.20;99.90;;;;;;6203841;28;20480;-64
2020/12/15 09:50:15;;;;;;;23.40;15.20;;;3.20;99.90;;;;;;6203308;28;20850;-60
2020/12/15 09:53:17;;;;;;;23.47;15.60;;;3.10;99.90;;;;;;6203313;28;20483;-62
2020/12/15 09:56:20;;;;;;;33.27;21.00;;;3.20;99.90;;;;;;6203206;28;20473;-62
2020/12/15 09:59:22;;;;;;;27.60;18.30;;;3.10;99.90;;;;;;6203892;28;20487;-63
2020/12/15 10:02:25;;;;;;;25.37;15.57;;;3.10;99.90;;;;;;6213638;28;20810;-61
2020/12/15 10:05:28;;;;;;;24.10;15.57;;;3.10;99.90;;;;;;6223985;28;20479;-63
2020/12/15 10:08:30;;;;;;;25.57;16.23;;;3.10;99.90;;;;;;6224457;28;20555;-59
2020/12/15 10:11:33;;;;;;;21.20;15.87;;;3.20;99.90;;;;;;6212615;28;20968;-62
2020/12/15 10:14:36;;;;;;;26.63;17.40;;;3.30;99.90;;;;;;6205043;28;20961;-63
2020/12/15 10:17:39;;;;;;;33.63;17.40;;;3.30;99.90;;;;;;6202539;28;20528;-65
2020/12/15 10:20:42;;;;;;;22.37;15.47;;;3.40;99.90;;;;;;6202533;28;20473;-63
2020/12/15 10:23:47;;;;;;;24.13;15.87;;;3.50;99.90;;;;;;6202622;28;20479;-61
2020/12/15 10:26:52;;;;;;;26.63;17.27;;;3.60;99.90;;;;;;6202758;28;20484;-61
2020/12/15 10:29:54;;;;;;;26.93;19.47;;;3.60;99.90;;;;;;6193393;28;20496;-63
2020/12/15 10:32:57;;;;;;;25.30;15.50;;;3.60;99.90;;;;;;6202766;28;20484;-63
2020/12/15 10:36:00;;;;;;;22.43;15.20;;;3.60;99.90;;;;;;6202031;28;20477;-62
2020/12/15 10:39:02;;;;;;;25.40;15.83;;;3.50;99.90;;;;;;6209738;28;20948;-63
2020/12/15 10:42:05;;;;;;;19.47;13.60;;;3.40;99.90;;;;;;6222932;28;20467;-64
2020/12/15 10:45:07;;;;;;;22.00;15.60;;;3.20;99.90;;;;;;6216518;28;20949;-60
2020/12/15 10:48:10;;;;;;;23.40;17.57;;;3.20;99.90;;;;;;6221262;28;20814;-59
2020/12/15 10:51:12;;;;;;;25.47;16.63;;;3.20;99.90;;;;;;6207286;28;20793;-61
2020/12/15 10:54:14;;;;;;;28.30;19.10;;;3.30;99.90;;;;;;6226970;28;20567;-64
2020/12/15 10:57:17;;;;;;;23.17;14.87;;;3.40;99.90;;;;;;6226106;28;20472;-63
2020/12/15 11:00:19;;;;;;;21.23;13.47;;;3.40;99.90;;;;;;6225950;28;20817;-61
2020/12/15 11:03:26;;;;;;;25.70;15.13;;;3.30;99.90;;;;;;6226023;28;20559;-63
2020/12/15 11:06:31;;;;;;;21.90;14.30;;;3.30;99.90;;;;;;6225959;28;20994;-63
2020/12/15 11:09:35;;;;;;;18.87;14.03;;;3.20;99.90;;;;;;6225731;28;20964;-65
2020/12/15 11:12:37;;;;;;;32.03;14.40;;;3.10;99.90;;;;;;6225251;28;20487;-65
2020/12/15 11:15:39;;;;;;;24.77;14.30;;;3.20;99.90;;;;;;6193630;28;20485;-63
2020/12/15 11:18:43;;;;;;;25.40;14.23;;;3.20;99.90;;;;;;6201207;28;20951;-64
2020/12/15 11:21:47;;;;;;;19.90;14.07;;;3.30;99.90;;;;;;6200903;28;20948;-63
2020/12/15 11:24:49;;;;;;;20.73;14.20;;;3.30;99.90;;;;;;6201107;28;20451;-62
2020/12/15 11:27:51;;;;;;;20.20;13.90;;;3.30;99.90;;;;;;6201220;28;20452;-62
2020/12/15 11:30:53;;;;;;;21.20;13.43;;;3.30;99.90;;;;;;6196433;28;20553;-65
2020/12/15 11:33:56;;;;;;;18.07;11.93;;;3.30;99.90;;;;;;6201391;28;20457;-64
2020/12/15 11:36:59;;;;;;;23.17;14.37;;;3.50;99.90;;;;;;6201756;28;20450;-64
2020/12/15 11:40:01;;;;;;;19.40;13.70;;;3.50;99.90;;;;;;6200763;28;20807;-63
2020/12/15 11:43:03;;;;;;;20.60;13.53;;;3.50;99.90;;;;;;6200918;28;20835;-64
2020/12/15 11:46:06;;;;;;;21.30;13.80;;;3.50;99.90;;;;;;6200937;28;20814;-65
2020/12/15 11:49:11;;;;;;;20.80;13.00;;;3.40;99.90;;;;;;6200857;28;20476;-63
2020/12/15 11:52:13;;;;;;;20.47;13.73;;;3.50;99.90;;;;;;6200076;28;20489;-65
2020/12/15 11:55:15;;;;;;;23.43;13.50;;;3.50;99.90;;;;;;6201155;28;20477;-63
2020/12/15 11:58:18;;;;;;;18.97;13.30;;;3.60;99.90;;;;;;6200888;28;20480;-63
2020/12/15 12:01:20;;;;;;;18.80;12.30;;;3.60;99.90;;;;;;6201074;28;20477;-63
2020/12/15 12:04:23;;;;;;;20.83;14.20;;;3.50;99.90;;;;;;6201096;28;20479;-63
2020/12/15 12:07:25;;;;;;;27.87;14.17;;;3.60;99.90;;;;;;6200774;28;20810;-63
2020/12/15 12:10:27;;;;;;;15.30;10.90;;;3.70;99.90;;;;;;6200070;28;20481;-62
2020/12/15 12:13:29;;;;;;;22.43;13.60;;;3.60;99.90;;;;;;6199884;28;20809;-64
2020/12/15 12:16:32;;;;;;;19.13;12.60;;;3.60;99.90;;;;;;6200202;28;20483;-64
2020/12/15 12:19:35;;;;;;;20.13;13.03;;;3.60;99.90;;;;;;6200454;28;20824;-62
2020/12/15 12:22:37;;;;;;;18.80;13.50;;;3.70;99.90;;;;;;6200671;28;20969;-64
2020/12/15 12:25:39;;;;;;;18.63;13.37;;;3.80;99.90;;;;;;6201910;28;20491;-62
2020/12/15 12:28:42;;;;;;;18.27;11.97;;;3.80;99.90;;;;;;6209372;28;20506;-61
2020/12/15 12:31:48;;;;;;;17.80;12.07;;;3.80;99.90;;;;;;6207565;28;20826;-61
2020/12/15 12:34:51;;;;;;;18.80;12.37;;;3.70;99.90;;;;;;6200120;28;20484;-61
2020/12/15 12:37:53;;;;;;;20.03;11.83;;;3.70;99.90;;;;;;6200033;28;20486;-62
2020/12/15 12:40:55;;;;;;;16.60;12.20;;;3.70;99.90;;;;;;6200825;28;20477;-62
2020/12/15 12:43:58;;;;;;;20.87;12.80;;;3.60;99.90;;;;;;6200590;28;20567;-62
2020/12/15 12:47:00;;;;;;;17.40;12.23;;;3.50;99.90;;;;;;6201160;28;20487;-62
2020/12/15 12:50:04;;;;;;;17.03;11.80;;;3.50;99.90;;;;;;6200367;28;20555;-62
2020/12/15 12:53:06;;;;;;;20.13;12.83;;;3.50;99.90;;;;;;6200370;28;20485;-61
2020/12/15 12:56:09;;;;;;;19.03;11.67;;;3.50;99.90;;;;;;6200181;28;20835;-65
2020/12/15 12:59:11;;;;;;;17.33;12.20;;;3.60;99.90;;;;;;6200484;28;20560;-62
2020/12/15 13:02:13;;;;;;;18.40;12.60;;;3.70;99.90;;;;;;6200102;28;20472;-61
2020/12/15 13:05:17;;;;;;;18.87;13.73;;;3.80;99.90;;;;;;6206592;28;20480;-62
2020/12/15 13:08:19;;;;;;;19.37;12.93;;;3.50;99.90;;;;;;6215810;28;20464;-62
2020/12/15 13:11:22;;;;;;;21.43;12.57;;;3.40;99.90;;;;;;6218700;28;20948;-61
2020/12/15 13:14:25;;;;;;;23.40;13.50;;;3.40;99.90;;;;;;6215056;28;20490;-63
2020/12/15 13:17:28;;;;;;;29.77;16.87;;;3.50;99.90;;;;;;6225008;28;20781;-62
2020/12/15 13:20:31;;;;;;;19.67;13.43;;;3.40;99.90;;;;;;6228239;28;21019;-59
2020/12/15 13:23:33;;;;;;;23.67;14.40;;;3.50;99.90;;;;;;6207812;28;20937;-62
2020/12/15 13:26:41;;;;;;;23.63;16.13;;;3.50;99.90;;;;;;6204328;28;20483;-62
2020/12/15 13:29:43;;;;;;;15.47;10.00;;;3.50;99.90;;;;;;6211456;28;20469;-64
2020/12/15 13:32:45;;;;;;;18.27;11.93;;;3.50;99.90;;;;;;6204055;28;20542;-64
2020/12/15 13:35:49;;;;;;;19.80;14.97;;;3.30;99.90;;;;;;6203367;28;20499;-64
2020/12/15 13:38:51;;;;;;;15.90;11.27;;;3.00;99.90;;;;;;6203147;28;20635;-63
2020/12/15 13:41:53;;;;;;;17.73;11.17;;;3.00;99.90;;;;;;6195227;28;20481;-61
2020/12/15 13:44:55;;;;;;;16.17;9.80;;;3.00;99.90;;;;;;6203707;28;20515;-62
2020/12/15 13:47:59;;;;;;;14.10;10.53;;;3.10;99.90;;;;;;6203875;28;20862;-59
2020/12/15 13:51:02;;;;;;;15.40;10.30;;;3.10;99.90;;;;;;6202896;28;20632;-58
2020/12/15 13:54:04;;;;;;;14.97;10.77;;;3.10;99.90;;;;;;6205114;28;20477;-59
2020/12/15 13:57:07;;;;;;;14.30;10.47;;;3.10;99.90;;;;;;6213350;28;20474;-58
2020/12/15 14:00:09;;;;;;;15.70;10.03;;;2.80;99.90;;;;;;6214486;28;20473;-59
2020/12/15 14:03:13;;;;;;;18.07;12.67;;;2.80;99.90;;;;;;6215083;28;20480;-59
2020/12/15 14:06:21;;;;;;;19.60;11.00;;;2.90;99.90;;;;;;6211267;28;20914;-59
2020/12/15 14:09:23;;;;;;;19.23;11.40;;;3.00;99.90;;;;;;6212087;28;20476;-59
2020/12/15 14:12:25;;;;;;;17.63;11.17;;;3.10;99.90;;;;;;6213223;28;20485;-59
2020/12/15 14:15:27;;;;;;;20.40;13.03;;;3.20;99.90;;;;;;6213026;28;20468;-58
2020/12/15 14:18:32;;;;;;;17.73;12.70;;;3.30;99.90;;;;;;6212764;28;20472;-58
2020/12/15 14:21:41;;;;;;;15.23;10.90;;;3.30;99.90;;;;;;6213291;28;20505;-58
2020/12/15 14:24:44;;;;;;;18.47;11.47;;;3.10;99.90;;;;;;6210302;28;20487;-58
2020/12/15 14:27:47;;;;;;;18.00;12.10;;;3.00;99.90;;;;;;6214033;28;20448;-58
2020/12/15 14:30:51;;;;;;;14.73;11.40;;;3.20;99.90;;;;;;6210110;28;20461;-59
2020/12/15 14:33:54;;;;;;;13.43;11.07;;;3.20;99.90;;;;;;6214394;28;20520;-61
2020/12/15 14:36:58;;;;;;;16.20;10.80;;;3.30;99.90;;;;;;6210436;28;20473;-62
2020/12/15 14:40:01;;;;;;;16.43;10.17;;;3.40;99.90;;;;;;6201926;28;20516;-62
2020/12/15 14:43:03;;;;;;;15.27;10.30;;;3.40;99.90;;;;;;6197626;28;20909;-62
2020/12/15 14:46:05;;;;;;;17.87;12.33;;;3.40;99.90;;;;;;6201902;28;20465;-63
2020/12/15 14:49:23;;;;;;;18.50;11.83;;;3.50;99.90;;;;;;6209012;28;20487;-64
2020/12/15 14:52:26;;;;;;;18.60;11.80;;;3.50;99.90;;;;;;6212249;28;20551;-64
2020/12/15 14:55:29;;;;;;;17.50;11.90;;;3.50;99.90;;;;;;6206839;28;20468;-63
2020/12/15 14:58:31;;;;;;;17.17;12.00;;;3.50;99.90;;;;;;6213109;28;20480;-62
2020/12/15 15:01:36;;;;;;;19.67;13.60;;;3.50;99.90;;;;;;6217532;28;20815;-64
2020/12/15 15:04:39;;;;;;;19.53;12.30;;;3.50;99.90;;;;;;6212773;28;20461;-61
2020/12/15 15:07:42;;;;;;;16.53;11.80;;;3.40;99.90;;;;;;6211808;28;20965;-63
2020/12/15 15:10:46;;;;;;;20.10;11.80;;;3.40;99.90;;;;;;6213083;28;20498;-60
2020/12/15 15:13:48;;;;;;;21.43;12.93;;;3.50;99.90;;;;;;6211912;28;20481;-62
2020/12/15 15:16:52;;;;;;;23.17;13.40;;;3.50;99.90;;;;;;6211797;28;20468;-60
2020/12/15 15:19:54;;;;;;;16.73;10.70;;;3.50;99.90;;;;;;6208731;28;20481;-61
2020/12/15 15:22:57;;;;;;;21.10;13.03;;;3.60;99.90;;;;;;6207489;28;20543;-62
2020/12/15 15:26:00;;;;;;;21.00;13.10;;;3.50;99.90;;;;;;6201034;28;20484;-60
2020/12/15 15:29:02;;;;;;;26.27;12.67;;;3.50;99.90;;;;;;6201166;28;20814;-63
2020/12/15 15:32:04;;;;;;;22.20;13.47;;;3.50;99.90;;;;;;6201073;28;20511;-62
2020/12/15 15:35:07;;;;;;;19.50;13.20;;;3.50;99.90;;;;;;6201033;28;20485;-62
2020/12/15 15:38:10;;;;;;;18.67;14.00;;;3.60;99.90;;;;;;6201211;28;20473;-62
2020/12/15 15:41:12;;;;;;;25.70;13.83;;;3.70;99.90;;;;;;6201204;28;20568;-64